sensor_id;sensor_type;location;lat;lon;timestamp;P1;durP1;ratioP1;P2;durP2;ratioP2
13981;SDS011;7065;50.880;5.502;2022-08-03T00:01:31;4.28;;;2.40;;
13981;SDS011;7065;50.880;5.502;2022-08-03T00:03:58;2.70;;;2.50;;
13981;SDS011;7065;50.880;5.502;2022-08-03T00:06:23;3.85;;;2.55;;
13981;SDS011;7065;50.880;5.502;2022-08-03T00:08:49;3.28;;;2.30;;
13981;SDS011;7065;50.880;5.502;2022-08-03T00:11:15;3.08;;;2.40;;
13981;SDS011;7065;50.880;5.502;2022-08-03T00:13:41;3.90;;;2.33;;
13981;SDS011;7065;50.880;5.502;2022-08-03T00:16:07;2.30;;;2.10;;
13981;SDS011;7065;50.880;5.502;2022-08-03T00:18:33;3.10;;;2.80;;
13981;SDS011;7065;50.880;5.502;2022-08-03T00:20:58;4.60;;;2.70;;
13981;SDS011;7065;50.880;5.502;2022-08-03T00:23:24;3.05;;;2.35;;
13981;SDS011;7065;50.880;5.502;2022-08-03T00:25:49;2.53;;;2.33;;
13981;SDS011;7065;50.880;5.502;2022-08-03T00:28:15;3.78;;;2.38;;
13981;SDS011;7065;50.880;5.502;2022-08-03T00:30:41;2.50;;;2.30;;
13981;SDS011;7065;50.880;5.502;2022-08-03T00:33:06;3.53;;;2.20;;
13981;SDS011;7065;50.880;5.502;2022-08-03T00:35:34;4.30;;;2.50;;
13981;SDS011;7065;50.880;5.502;2022-08-03T00:38:00;3.20;;;2.72;;
13981;SDS011;7065;50.880;5.502;2022-08-03T00:40:25;4.40;;;3.28;;
13981;SDS011;7065;50.880;5.502;2022-08-03T00:45:21;2.72;;;2.03;;
13981;SDS011;7065;50.880;5.502;2022-08-03T00:47:51;4.45;;;2.60;;
13981;SDS011;7065;50.880;5.502;2022-08-03T00:50:18;4.90;;;2.92;;
13981;SDS011;7065;50.880;5.502;2022-08-03T00:52:47;3.58;;;2.83;;
13981;SDS011;7065;50.880;5.502;2022-08-03T00:55:13;3.92;;;2.75;;
13981;SDS011;7065;50.880;5.502;2022-08-03T00:57:39;2.92;;;2.63;;
13981;SDS011;7065;50.880;5.502;2022-08-03T01:00:07;3.75;;;2.35;;
13981;SDS011;7065;50.880;5.502;2022-08-03T01:02:34;3.42;;;2.50;;
13981;SDS011;7065;50.880;5.502;2022-08-03T01:05:01;3.85;;;3.00;;
13981;SDS011;7065;50.880;5.502;2022-08-03T01:07:51;3.53;;;2.70;;
13981;SDS011;7065;50.880;5.502;2022-08-03T01:15:53;2.90;;;2.60;;
13981;SDS011;7065;50.880;5.502;2022-08-03T01:18:31;3.42;;;2.30;;
13981;SDS011;7065;50.880;5.502;2022-08-03T01:21:26;2.78;;;2.47;;
13981;SDS011;7065;50.880;5.502;2022-08-03T01:24:03;2.83;;;2.45;;
13981;SDS011;7065;50.880;5.502;2022-08-03T01:29:55;4.38;;;2.95;;
13981;SDS011;7065;50.880;5.502;2022-08-03T01:35:08;2.22;;;2.03;;
13981;SDS011;7065;50.880;5.502;2022-08-03T01:37:37;2.65;;;2.38;;
13981;SDS011;7065;50.880;5.502;2022-08-03T01:40:19;2.33;;;2.13;;
13981;SDS011;7065;50.880;5.502;2022-08-03T01:42:48;4.32;;;2.20;;
13981;SDS011;7065;50.880;5.502;2022-08-03T01:45:15;2.53;;;2.15;;
13981;SDS011;7065;50.880;5.502;2022-08-03T01:47:43;3.10;;;2.10;;
13981;SDS011;7065;50.880;5.502;2022-08-03T01:50:10;3.55;;;2.30;;
13981;SDS011;7065;50.880;5.502;2022-08-03T01:52:38;4.32;;;2.63;;
13981;SDS011;7065;50.880;5.502;2022-08-03T01:55:08;2.85;;;2.60;;
13981;SDS011;7065;50.880;5.502;2022-08-03T01:57:36;3.42;;;2.65;;
13981;SDS011;7065;50.880;5.502;2022-08-03T02:00:03;2.80;;;2.00;;
13981;SDS011;7065;50.880;5.502;2022-08-03T02:02:30;4.38;;;2.58;;
13981;SDS011;7065;50.880;5.502;2022-08-03T02:04:57;4.50;;;2.83;;
13981;SDS011;7065;50.880;5.502;2022-08-03T02:07:24;2.95;;;2.65;;
13981;SDS011;7065;50.880;5.502;2022-08-03T02:09:53;2.90;;;2.70;;
13981;SDS011;7065;50.880;5.502;2022-08-03T02:12:19;2.58;;;2.38;;
13981;SDS011;7065;50.880;5.502;2022-08-03T02:14:48;5.07;;;2.75;;
13981;SDS011;7065;50.880;5.502;2022-08-03T02:17:14;3.40;;;2.20;;
13981;SDS011;7065;50.880;5.502;2022-08-03T02:19:41;3.50;;;2.20;;
13981;SDS011;7065;50.880;5.502;2022-08-03T02:22:08;3.72;;;2.38;;
13981;SDS011;7065;50.880;5.502;2022-08-03T02:24:34;2.42;;;2.22;;
13981;SDS011;7065;50.880;5.502;2022-08-03T02:27:00;4.38;;;2.20;;
13981;SDS011;7065;50.880;5.502;2022-08-03T02:29:31;2.60;;;2.40;;
13981;SDS011;7065;50.880;5.502;2022-08-03T02:31:59;2.55;;;2.22;;
13981;SDS011;7065;50.880;5.502;2022-08-03T02:34:28;2.85;;;1.92;;
13981;SDS011;7065;50.880;5.502;2022-08-03T02:36:58;3.90;;;2.47;;
13981;SDS011;7065;50.880;5.502;2022-08-03T02:39:24;2.85;;;2.42;;
13981;SDS011;7065;50.880;5.502;2022-08-03T02:41:55;3.80;;;2.40;;
13981;SDS011;7065;50.880;5.502;2022-08-03T02:44:26;2.63;;;2.20;;
13981;SDS011;7065;50.880;5.502;2022-08-03T02:46:56;3.78;;;3.00;;
13981;SDS011;7065;50.880;5.502;2022-08-03T02:49:25;2.70;;;2.42;;
13981;SDS011;7065;50.880;5.502;2022-08-03T02:51:52;3.42;;;2.38;;
13981;SDS011;7065;50.880;5.502;2022-08-03T02:54:19;2.85;;;2.50;;
13981;SDS011;7065;50.880;5.502;2022-08-03T02:56:47;3.97;;;2.42;;
13981;SDS011;7065;50.880;5.502;2022-08-03T02:59:14;4.00;;;2.83;;
13981;SDS011;7065;50.880;5.502;2022-08-03T03:01:43;3.47;;;2.63;;
13981;SDS011;7065;50.880;5.502;2022-08-03T03:04:10;3.75;;;2.88;;
13981;SDS011;7065;50.880;5.502;2022-08-03T03:06:37;2.55;;;2.10;;
13981;SDS011;7065;50.880;5.502;2022-08-03T03:09:03;2.38;;;2.17;;
13981;SDS011;7065;50.880;5.502;2022-08-03T03:11:30;4.10;;;2.60;;
13981;SDS011;7065;50.880;5.502;2022-08-03T03:13:56;3.78;;;2.65;;
13981;SDS011;7065;50.880;5.502;2022-08-03T03:16:24;2.58;;;2.38;;
13981;SDS011;7065;50.880;5.502;2022-08-03T03:18:50;2.78;;;2.22;;
13981;SDS011;7065;50.880;5.502;2022-08-03T03:21:18;3.47;;;2.75;;
13981;SDS011;7065;50.880;5.502;2022-08-03T03:23:44;4.63;;;3.00;;
13981;SDS011;7065;50.880;5.502;2022-08-03T03:26:12;3.40;;;2.40;;
13981;SDS011;7065;50.880;5.502;2022-08-03T03:28:39;4.50;;;2.58;;
13981;SDS011;7065;50.880;5.502;2022-08-03T03:31:05;3.15;;;2.58;;
13981;SDS011;7065;50.880;5.502;2022-08-03T03:33:32;5.25;;;3.08;;
13981;SDS011;7065;50.880;5.502;2022-08-03T03:35:59;6.70;;;3.28;;
13981;SDS011;7065;50.880;5.502;2022-08-03T03:38:24;4.93;;;3.20;;
13981;SDS011;7065;50.880;5.502;2022-08-03T03:40:50;2.97;;;2.50;;
13981;SDS011;7065;50.880;5.502;2022-08-03T03:43:16;4.75;;;2.80;;
13981;SDS011;7065;50.880;5.502;2022-08-03T03:45:42;4.20;;;2.55;;
13981;SDS011;7065;50.880;5.502;2022-08-03T03:48:09;3.33;;;2.83;;
13981;SDS011;7065;50.880;5.502;2022-08-03T03:50:36;3.80;;;2.78;;
13981;SDS011;7065;50.880;5.502;2022-08-03T03:53:05;21.48;;;4.53;;
13981;SDS011;7065;50.880;5.502;2022-08-03T03:55:34;9.95;;;4.43;;
13981;SDS011;7065;50.880;5.502;2022-08-03T03:58:04;8.40;;;3.45;;
13981;SDS011;7065;50.880;5.502;2022-08-03T04:00:30;13.07;;;4.03;;
13981;SDS011;7065;50.880;5.502;2022-08-03T04:02:56;9.95;;;3.78;;
13981;SDS011;7065;50.880;5.502;2022-08-03T04:05:21;9.10;;;3.45;;
13981;SDS011;7065;50.880;5.502;2022-08-03T04:08:07;7.63;;;2.95;;
13981;SDS011;7065;50.880;5.502;2022-08-03T04:13:37;3.72;;;2.75;;
13981;SDS011;7065;50.880;5.502;2022-08-03T04:16:06;41.40;;;7.35;;
13981;SDS011;7065;50.880;5.502;2022-08-03T04:18:34;12.73;;;4.72;;
13981;SDS011;7065;50.880;5.502;2022-08-03T04:21:05;40.05;;;6.22;;
13981;SDS011;7065;50.880;5.502;2022-08-03T04:23:36;12.43;;;4.75;;
13981;SDS011;7065;50.880;5.502;2022-08-03T04:26:06;8.10;;;4.10;;
13981;SDS011;7065;50.880;5.502;2022-08-03T04:28:36;6.88;;;3.33;;
13981;SDS011;7065;50.880;5.502;2022-08-03T04:31:03;15.68;;;3.97;;
13981;SDS011;7065;50.880;5.502;2022-08-03T04:33:31;6.63;;;3.63;;
13981;SDS011;7065;50.880;5.502;2022-08-03T04:35:59;13.70;;;4.40;;
13981;SDS011;7065;50.880;5.502;2022-08-03T04:38:28;12.07;;;3.55;;
13981;SDS011;7065;50.880;5.502;2022-08-03T04:40:55;8.43;;;3.53;;
13981;SDS011;7065;50.880;5.502;2022-08-03T04:43:22;7.15;;;3.47;;
13981;SDS011;7065;50.880;5.502;2022-08-03T04:45:49;10.60;;;4.60;;
13981;SDS011;7065;50.880;5.502;2022-08-03T04:48:15;12.25;;;4.63;;
13981;SDS011;7065;50.880;5.502;2022-08-03T04:50:41;12.43;;;4.20;;
13981;SDS011;7065;50.880;5.502;2022-08-03T04:53:07;8.68;;;4.13;;
13981;SDS011;7065;50.880;5.502;2022-08-03T04:55:33;6.57;;;3.50;;
13981;SDS011;7065;50.880;5.502;2022-08-03T04:58:00;9.65;;;4.03;;
13981;SDS011;7065;50.880;5.502;2022-08-03T05:00:27;7.65;;;3.50;;
13981;SDS011;7065;50.880;5.502;2022-08-03T05:02:53;6.95;;;3.63;;
13981;SDS011;7065;50.880;5.502;2022-08-03T05:05:20;4.70;;;2.92;;
13981;SDS011;7065;50.880;5.502;2022-08-03T05:07:46;4.70;;;3.70;;
13981;SDS011;7065;50.880;5.502;2022-08-03T05:10:12;3.80;;;3.13;;
13981;SDS011;7065;50.880;5.502;2022-08-03T05:12:39;4.47;;;3.13;;
13981;SDS011;7065;50.880;5.502;2022-08-03T05:15:05;9.30;;;3.95;;
13981;SDS011;7065;50.880;5.502;2022-08-03T05:17:31;7.38;;;4.72;;
13981;SDS011;7065;50.880;5.502;2022-08-03T05:20:01;8.18;;;4.15;;
13981;SDS011;7065;50.880;5.502;2022-08-03T05:22:28;5.63;;;3.95;;
13981;SDS011;7065;50.880;5.502;2022-08-03T05:24:54;8.90;;;4.30;;
13981;SDS011;7065;50.880;5.502;2022-08-03T05:27:19;5.78;;;4.00;;
13981;SDS011;7065;50.880;5.502;2022-08-03T05:29:45;7.45;;;4.05;;
13981;SDS011;7065;50.880;5.502;2022-08-03T05:32:12;5.20;;;4.15;;
13981;SDS011;7065;50.880;5.502;2022-08-03T05:34:37;8.52;;;4.43;;
13981;SDS011;7065;50.880;5.502;2022-08-03T05:37:03;6.80;;;4.30;;
13981;SDS011;7065;50.880;5.502;2022-08-03T05:39:29;7.10;;;4.10;;
13981;SDS011;7065;50.880;5.502;2022-08-03T05:41:55;7.50;;;4.70;;
13981;SDS011;7065;50.880;5.502;2022-08-03T05:44:20;6.18;;;4.43;;
13981;SDS011;7065;50.880;5.502;2022-08-03T05:46:46;6.28;;;4.65;;
13981;SDS011;7065;50.880;5.502;2022-08-03T05:49:11;7.15;;;4.47;;
13981;SDS011;7065;50.880;5.502;2022-08-03T05:51:37;6.15;;;4.22;;
13981;SDS011;7065;50.880;5.502;2022-08-03T05:54:03;4.22;;;3.65;;
13981;SDS011;7065;50.880;5.502;2022-08-03T05:56:28;5.40;;;3.72;;
13981;SDS011;7065;50.880;5.502;2022-08-03T05:58:54;5.53;;;4.18;;
13981;SDS011;7065;50.880;5.502;2022-08-03T06:01:20;3.72;;;3.42;;
13981;SDS011;7065;50.880;5.502;2022-08-03T06:03:46;3.65;;;3.25;;
13981;SDS011;7065;50.880;5.502;2022-08-03T06:06:12;3.92;;;3.60;;
13981;SDS011;7065;50.880;5.502;2022-08-03T06:08:39;5.88;;;4.13;;
13981;SDS011;7065;50.880;5.502;2022-08-03T06:11:05;7.22;;;3.95;;
13981;SDS011;7065;50.880;5.502;2022-08-03T06:13:31;4.80;;;3.70;;
13981;SDS011;7065;50.880;5.502;2022-08-03T06:15:57;5.80;;;3.40;;
13981;SDS011;7065;50.880;5.502;2022-08-03T06:18:22;6.35;;;3.85;;
13981;SDS011;7065;50.880;5.502;2022-08-03T06:20:48;6.72;;;3.72;;
13981;SDS011;7065;50.880;5.502;2022-08-03T06:23:15;6.43;;;3.42;;
13981;SDS011;7065;50.880;5.502;2022-08-03T06:25:41;4.90;;;3.15;;
13981;SDS011;7065;50.880;5.502;2022-08-03T06:28:07;6.35;;;3.85;;
13981;SDS011;7065;50.880;5.502;2022-08-03T06:30:32;5.43;;;3.00;;
13981;SDS011;7065;50.880;5.502;2022-08-03T06:32:58;5.78;;;3.10;;
13981;SDS011;7065;50.880;5.502;2022-08-03T06:35:24;4.15;;;3.00;;
13981;SDS011;7065;50.880;5.502;2022-08-03T06:37:51;4.57;;;2.50;;
13981;SDS011;7065;50.880;5.502;2022-08-03T06:40:21;5.25;;;2.95;;
13981;SDS011;7065;50.880;5.502;2022-08-03T06:42:58;8.35;;;3.10;;
13981;SDS011;7065;50.880;5.502;2022-08-03T06:45:25;4.35;;;2.70;;
13981;SDS011;7065;50.880;5.502;2022-08-03T06:48:05;4.75;;;2.75;;
13981;SDS011;7065;50.880;5.502;2022-08-03T06:50:31;3.35;;;2.13;;
13981;SDS011;7065;50.880;5.502;2022-08-03T06:52:57;4.63;;;3.05;;
13981;SDS011;7065;50.880;5.502;2022-08-03T06:55:24;5.20;;;2.65;;
13981;SDS011;7065;50.880;5.502;2022-08-03T06:57:50;5.10;;;2.70;;
13981;SDS011;7065;50.880;5.502;2022-08-03T07:00:16;4.38;;;2.60;;
13981;SDS011;7065;50.880;5.502;2022-08-03T07:02:42;7.25;;;2.92;;
13981;SDS011;7065;50.880;5.502;2022-08-03T07:05:08;5.40;;;2.65;;
13981;SDS011;7065;50.880;5.502;2022-08-03T07:07:34;4.60;;;3.03;;
13981;SDS011;7065;50.880;5.502;2022-08-03T07:10:01;5.18;;;2.90;;
13981;SDS011;7065;50.880;5.502;2022-08-03T07:12:27;5.00;;;3.03;;
13981;SDS011;7065;50.880;5.502;2022-08-03T07:14:55;5.97;;;2.70;;
13981;SDS011;7065;50.880;5.502;2022-08-03T07:17:21;3.08;;;2.15;;
13981;SDS011;7065;50.880;5.502;2022-08-03T07:19:47;3.88;;;2.33;;
13981;SDS011;7065;50.880;5.502;2022-08-03T07:22:13;4.97;;;2.25;;
13981;SDS011;7065;50.880;5.502;2022-08-03T07:24:38;2.85;;;2.13;;
13981;SDS011;7065;50.880;5.502;2022-08-03T07:27:06;3.13;;;2.20;;
13981;SDS011;7065;50.880;5.502;2022-08-03T07:29:33;3.08;;;1.60;;
13981;SDS011;7065;50.880;5.502;2022-08-03T07:31:59;4.50;;;1.75;;
13981;SDS011;7065;50.880;5.502;2022-08-03T07:34:25;3.70;;;1.80;;
13981;SDS011;7065;50.880;5.502;2022-08-03T07:36:50;2.03;;;1.35;;
13981;SDS011;7065;50.880;5.502;2022-08-03T07:39:16;3.67;;;1.65;;
13981;SDS011;7065;50.880;5.502;2022-08-03T07:41:42;4.50;;;1.55;;
13981;SDS011;7065;50.880;5.502;2022-08-03T07:44:07;5.18;;;2.00;;
13981;SDS011;7065;50.880;5.502;2022-08-03T07:46:33;4.32;;;1.63;;
13981;SDS011;7065;50.880;5.502;2022-08-03T07:48:59;2.10;;;1.60;;
13981;SDS011;7065;50.880;5.502;2022-08-03T07:51:24;3.08;;;1.70;;
13981;SDS011;7065;50.880;5.502;2022-08-03T07:53:50;3.33;;;1.63;;
13981;SDS011;7065;50.880;5.502;2022-08-03T07:56:15;4.85;;;1.63;;
13981;SDS011;7065;50.880;5.502;2022-08-03T07:58:41;3.20;;;1.60;;
13981;SDS011;7065;50.880;5.502;2022-08-03T08:01:07;4.97;;;1.63;;
13981;SDS011;7065;50.880;5.502;2022-08-03T08:03:33;2.35;;;1.63;;
13981;SDS011;7065;50.880;5.502;2022-08-03T08:05:58;1.88;;;1.55;;
13981;SDS011;7065;50.880;5.502;2022-08-03T08:08:24;4.60;;;2.00;;
13981;SDS011;7065;50.880;5.502;2022-08-03T08:10:49;3.83;;;1.65;;
13981;SDS011;7065;50.880;5.502;2022-08-03T08:13:15;6.10;;;1.40;;
13981;SDS011;7065;50.880;5.502;2022-08-03T08:15:41;3.13;;;1.55;;
13981;SDS011;7065;50.880;5.502;2022-08-03T08:18:07;2.42;;;1.10;;
13981;SDS011;7065;50.880;5.502;2022-08-03T08:20:33;4.63;;;1.70;;
13981;SDS011;7065;50.880;5.502;2022-08-03T08:23:02;1.73;;;1.25;;
13981;SDS011;7065;50.880;5.502;2022-08-03T08:25:29;3.40;;;1.60;;
13981;SDS011;7065;50.880;5.502;2022-08-03T08:27:56;5.82;;;1.52;;
13981;SDS011;7065;50.880;5.502;2022-08-03T08:30:25;2.35;;;1.40;;
13981;SDS011;7065;50.880;5.502;2022-08-03T08:32:51;2.95;;;1.42;;
13981;SDS011;7065;50.880;5.502;2022-08-03T08:35:17;3.00;;;1.52;;
13981;SDS011;7065;50.880;5.502;2022-08-03T08:37:43;4.22;;;1.70;;
13981;SDS011;7065;50.880;5.502;2022-08-03T08:40:09;1.98;;;1.33;;
13981;SDS011;7065;50.880;5.502;2022-08-03T08:42:37;3.53;;;1.50;;
13981;SDS011;7065;50.880;5.502;2022-08-03T08:45:03;3.25;;;1.70;;
13981;SDS011;7065;50.880;5.502;2022-08-03T08:47:31;2.67;;;1.50;;
13981;SDS011;7065;50.880;5.502;2022-08-03T08:49:58;4.47;;;1.80;;
13981;SDS011;7065;50.880;5.502;2022-08-03T08:52:24;2.42;;;1.30;;
13981;SDS011;7065;50.880;5.502;2022-08-03T08:54:55;3.67;;;1.45;;
13981;SDS011;7065;50.880;5.502;2022-08-03T08:57:24;1.60;;;1.40;;
13981;SDS011;7065;50.880;5.502;2022-08-03T08:59:53;2.22;;;1.20;;
13981;SDS011;7065;50.880;5.502;2022-08-03T09:02:21;2.20;;;1.75;;
13981;SDS011;7065;50.880;5.502;2022-08-03T09:04:47;9.50;;;2.20;;
13981;SDS011;7065;50.880;5.502;2022-08-03T09:07:13;4.75;;;1.50;;
13981;SDS011;7065;50.880;5.502;2022-08-03T09:09:40;2.80;;;1.40;;
13981;SDS011;7065;50.880;5.502;2022-08-03T09:12:06;3.78;;;1.45;;
13981;SDS011;7065;50.880;5.502;2022-08-03T09:14:32;2.42;;;1.60;;
13981;SDS011;7065;50.880;5.502;2022-08-03T09:16:59;3.63;;;1.55;;
13981;SDS011;7065;50.880;5.502;2022-08-03T09:19:26;2.47;;;1.50;;
13981;SDS011;7065;50.880;5.502;2022-08-03T09:22:05;2.60;;;1.40;;
13981;SDS011;7065;50.880;5.502;2022-08-03T09:25:00;5.05;;;1.55;;
13981;SDS011;7065;50.880;5.502;2022-08-03T09:27:27;2.70;;;1.10;;
13981;SDS011;7065;50.880;5.502;2022-08-03T09:29:54;2.70;;;1.30;;
13981;SDS011;7065;50.880;5.502;2022-08-03T09:32:20;3.55;;;1.30;;
13981;SDS011;7065;50.880;5.502;2022-08-03T09:34:47;1.67;;;1.30;;
13981;SDS011;7065;50.880;5.502;2022-08-03T09:37:14;2.05;;;1.10;;
13981;SDS011;7065;50.880;5.502;2022-08-03T09:39:41;2.38;;;1.20;;
13981;SDS011;7065;50.880;5.502;2022-08-03T09:42:09;6.53;;;1.60;;
13981;SDS011;7065;50.880;5.502;2022-08-03T09:44:40;2.95;;;1.63;;
13981;SDS011;7065;50.880;5.502;2022-08-03T09:47:08;2.50;;;1.27;;
13981;SDS011;7065;50.880;5.502;2022-08-03T09:49:34;2.88;;;1.10;;
13981;SDS011;7065;50.880;5.502;2022-08-03T09:52:13;2.70;;;1.42;;
13981;SDS011;7065;50.880;5.502;2022-08-03T09:54:40;2.63;;;1.35;;
13981;SDS011;7065;50.880;5.502;2022-08-03T09:57:07;2.78;;;1.27;;
13981;SDS011;7065;50.880;5.502;2022-08-03T09:59:33;2.50;;;1.40;;
13981;SDS011;7065;50.880;5.502;2022-08-03T10:01:59;1.95;;;1.30;;
13981;SDS011;7065;50.880;5.502;2022-08-03T10:04:25;2.38;;;1.48;;
13981;SDS011;7065;50.880;5.502;2022-08-03T10:09:33;2.88;;;1.40;;
13981;SDS011;7065;50.880;5.502;2022-08-03T10:12:08;3.75;;;1.42;;
13981;SDS011;7065;50.880;5.502;2022-08-03T10:14:36;4.13;;;1.40;;
13981;SDS011;7065;50.880;5.502;2022-08-03T10:17:03;6.15;;;1.42;;
13981;SDS011;7065;50.880;5.502;2022-08-03T10:19:29;2.30;;;1.00;;
13981;SDS011;7065;50.880;5.502;2022-08-03T10:21:55;2.38;;;1.23;;
13981;SDS011;7065;50.880;5.502;2022-08-03T10:24:27;1.70;;;1.00;;
13981;SDS011;7065;50.880;5.502;2022-08-03T10:27:05;2.05;;;1.02;;
13981;SDS011;7065;50.880;5.502;2022-08-03T10:29:34;1.13;;;0.90;;
13981;SDS011;7065;50.880;5.502;2022-08-03T10:32:03;2.72;;;1.00;;
13981;SDS011;7065;50.880;5.502;2022-08-03T10:34:35;0.90;;;0.70;;
13981;SDS011;7065;50.880;5.502;2022-08-03T10:37:06;1.20;;;0.80;;
13981;SDS011;7065;50.880;5.502;2022-08-03T10:39:35;3.22;;;0.85;;
13981;SDS011;7065;50.880;5.502;2022-08-03T10:42:01;2.30;;;0.98;;
13981;SDS011;7065;50.880;5.502;2022-08-03T10:44:32;1.77;;;0.80;;
13981;SDS011;7065;50.880;5.502;2022-08-03T10:47:04;0.80;;;0.80;;
13981;SDS011;7065;50.880;5.502;2022-08-03T10:49:30;1.65;;;0.80;;
13981;SDS011;7065;50.880;5.502;2022-08-03T10:51:56;1.10;;;0.80;;
13981;SDS011;7065;50.880;5.502;2022-08-03T10:54:42;2.00;;;0.70;;
13981;SDS011;7065;50.880;5.502;2022-08-03T10:57:43;4.93;;;1.00;;
13981;SDS011;7065;50.880;5.502;2022-08-03T11:00:09;2.80;;;0.80;;
13981;SDS011;7065;50.880;5.502;2022-08-03T11:05:41;1.80;;;0.70;;
13981;SDS011;7065;50.880;5.502;2022-08-03T11:10:50;2.85;;;0.85;;
13981;SDS011;7065;50.880;5.502;2022-08-03T11:13:18;1.63;;;0.73;;
13981;SDS011;7065;50.880;5.502;2022-08-03T11:15:46;2.65;;;0.95;;
13981;SDS011;7065;50.880;5.502;2022-08-03T11:18:13;1.10;;;0.80;;
13981;SDS011;7065;50.880;5.502;2022-08-03T11:20:46;2.35;;;0.90;;
13981;SDS011;7065;50.880;5.502;2022-08-03T11:23:45;2.03;;;1.10;;
13981;SDS011;7065;50.880;5.502;2022-08-03T11:26:18;1.25;;;0.85;;
13981;SDS011;7065;50.880;5.502;2022-08-03T11:28:46;1.45;;;0.90;;
13981;SDS011;7065;50.880;5.502;2022-08-03T11:34:06;2.70;;;1.05;;
13981;SDS011;7065;50.880;5.502;2022-08-03T11:39:43;1.80;;;1.17;;
13981;SDS011;7065;50.880;5.502;2022-08-03T11:44:49;3.45;;;0.75;;
13981;SDS011;7065;50.880;5.502;2022-08-03T11:47:20;1.90;;;0.80;;
13981;SDS011;7065;50.880;5.502;2022-08-03T11:49:46;1.55;;;0.70;;
13981;SDS011;7065;50.880;5.502;2022-08-03T11:52:13;2.50;;;0.80;;
13981;SDS011;7065;50.880;5.502;2022-08-03T11:54:40;3.95;;;1.00;;
13981;SDS011;7065;50.880;5.502;2022-08-03T11:57:06;4.45;;;0.80;;
13981;SDS011;7065;50.880;5.502;2022-08-03T11:59:32;2.63;;;1.05;;
13981;SDS011;7065;50.880;5.502;2022-08-03T12:02:05;1.25;;;0.80;;
13981;SDS011;7065;50.880;5.502;2022-08-03T12:04:48;1.25;;;1.15;;
13981;SDS011;7065;50.880;5.502;2022-08-03T12:07:14;1.48;;;1.00;;
13981;SDS011;7065;50.880;5.502;2022-08-03T12:09:41;1.58;;;0.77;;
13981;SDS011;7065;50.880;5.502;2022-08-03T12:12:07;3.70;;;1.10;;
13981;SDS011;7065;50.880;5.502;2022-08-03T12:14:33;2.83;;;1.17;;
13981;SDS011;7065;50.880;5.502;2022-08-03T12:16:59;1.17;;;0.88;;
13981;SDS011;7065;50.880;5.502;2022-08-03T12:19:25;1.48;;;0.95;;
13981;SDS011;7065;50.880;5.502;2022-08-03T12:21:51;2.20;;;1.40;;
13981;SDS011;7065;50.880;5.502;2022-08-03T12:24:16;1.75;;;1.17;;
13981;SDS011;7065;50.880;5.502;2022-08-03T12:26:46;1.23;;;1.13;;
13981;SDS011;7065;50.880;5.502;2022-08-03T12:29:19;3.42;;;1.35;;
13981;SDS011;7065;50.880;5.502;2022-08-03T12:31:47;3.30;;;1.10;;
13981;SDS011;7065;50.880;5.502;2022-08-03T12:34:13;2.78;;;1.10;;
13981;SDS011;7065;50.880;5.502;2022-08-03T12:36:49;1.50;;;0.95;;
13981;SDS011;7065;50.880;5.502;2022-08-03T12:39:23;4.40;;;1.33;;
13981;SDS011;7065;50.880;5.502;2022-08-03T12:41:53;1.35;;;1.20;;
13981;SDS011;7065;50.880;5.502;2022-08-03T12:44:33;3.30;;;1.25;;
13981;SDS011;7065;50.880;5.502;2022-08-03T12:47:00;1.90;;;0.90;;
13981;SDS011;7065;50.880;5.502;2022-08-03T12:49:27;3.08;;;1.23;;
13981;SDS011;7065;50.880;5.502;2022-08-03T12:54:20;13.13;;;2.08;;
13981;SDS011;7065;50.880;5.502;2022-08-03T12:56:57;2.85;;;1.00;;
13981;SDS011;7065;50.880;5.502;2022-08-03T12:59:28;1.42;;;0.95;;
13981;SDS011;7065;50.880;5.502;2022-08-03T13:01:55;1.70;;;1.00;;
13981;SDS011;7065;50.880;5.502;2022-08-03T13:04:25;2.05;;;1.10;;
13981;SDS011;7065;50.880;5.502;2022-08-03T13:06:58;1.20;;;1.10;;
13981;SDS011;7065;50.880;5.502;2022-08-03T13:09:29;1.70;;;0.80;;
13981;SDS011;7065;50.880;5.502;2022-08-03T13:12:09;4.65;;;1.05;;
13981;SDS011;7065;50.880;5.502;2022-08-03T13:14:36;4.50;;;1.00;;
13981;SDS011;7065;50.880;5.502;2022-08-03T13:17:02;1.98;;;0.90;;
13981;SDS011;7065;50.880;5.502;2022-08-03T13:19:30;4.00;;;0.98;;
13981;SDS011;7065;50.880;5.502;2022-08-03T13:21:56;1.73;;;0.85;;
13981;SDS011;7065;50.880;5.502;2022-08-03T13:24:22;1.60;;;0.90;;
13981;SDS011;7065;50.880;5.502;2022-08-03T13:26:47;0.93;;;0.73;;
13981;SDS011;7065;50.880;5.502;2022-08-03T13:29:13;2.60;;;0.85;;
13981;SDS011;7065;50.880;5.502;2022-08-03T13:31:39;1.23;;;0.90;;
13981;SDS011;7065;50.880;5.502;2022-08-03T13:34:05;1.42;;;0.98;;
13981;SDS011;7065;50.880;5.502;2022-08-03T13:36:31;0.68;;;0.63;;
13981;SDS011;7065;50.880;5.502;2022-08-03T13:38:56;2.20;;;1.10;;
13981;SDS011;7065;50.880;5.502;2022-08-03T13:41:22;2.40;;;1.10;;
13981;SDS011;7065;50.880;5.502;2022-08-03T13:43:47;1.73;;;0.95;;
13981;SDS011;7065;50.880;5.502;2022-08-03T13:46:13;2.70;;;1.00;;
13981;SDS011;7065;50.880;5.502;2022-08-03T13:48:39;2.63;;;1.17;;
13981;SDS011;7065;50.880;5.502;2022-08-03T13:51:04;1.67;;;0.95;;
13981;SDS011;7065;50.880;5.502;2022-08-03T13:53:30;2.42;;;1.00;;
13981;SDS011;7065;50.880;5.502;2022-08-03T13:55:56;1.95;;;1.30;;
13981;SDS011;7065;50.880;5.502;2022-08-03T13:58:21;99.85;;;10.30;;
13981;SDS011;7065;50.880;5.502;2022-08-03T14:00:47;5.60;;;1.48;;
13981;SDS011;7065;50.880;5.502;2022-08-03T14:03:13;20.75;;;2.58;;
13981;SDS011;7065;50.880;5.502;2022-08-03T14:05:38;32.80;;;3.53;;
13981;SDS011;7065;50.880;5.502;2022-08-03T14:08:05;2.65;;;0.95;;
13981;SDS011;7065;50.880;5.502;2022-08-03T14:10:32;1.15;;;0.90;;
13981;SDS011;7065;50.880;5.502;2022-08-03T14:12:58;1.92;;;0.93;;
13981;SDS011;7065;50.880;5.502;2022-08-03T14:15:24;2.38;;;1.25;;
13981;SDS011;7065;50.880;5.502;2022-08-03T14:17:52;1.95;;;0.82;;
13981;SDS011;7065;50.880;5.502;2022-08-03T14:20:18;1.42;;;0.80;;
13981;SDS011;7065;50.880;5.502;2022-08-03T14:22:43;2.20;;;1.15;;
13981;SDS011;7065;50.880;5.502;2022-08-03T14:25:09;2.03;;;1.10;;
13981;SDS011;7065;50.880;5.502;2022-08-03T14:27:34;1.85;;;0.90;;
13981;SDS011;7065;50.880;5.502;2022-08-03T14:30:01;4.70;;;1.45;;
13981;SDS011;7065;50.880;5.502;2022-08-03T14:32:26;1.48;;;0.80;;
13981;SDS011;7065;50.880;5.502;2022-08-03T14:34:52;2.42;;;0.98;;
13981;SDS011;7065;50.880;5.502;2022-08-03T14:37:18;0.90;;;0.90;;
13981;SDS011;7065;50.880;5.502;2022-08-03T14:39:43;0.75;;;0.70;;
13981;SDS011;7065;50.880;5.502;2022-08-03T14:42:10;2.20;;;0.90;;
13981;SDS011;7065;50.880;5.502;2022-08-03T14:44:36;3.92;;;1.00;;
13981;SDS011;7065;50.880;5.502;2022-08-03T14:47:02;1.58;;;1.00;;
13981;SDS011;7065;50.880;5.502;2022-08-03T14:49:27;1.70;;;1.00;;
13981;SDS011;7065;50.880;5.502;2022-08-03T14:51:53;1.45;;;0.80;;
13981;SDS011;7065;50.880;5.502;2022-08-03T14:54:19;2.63;;;1.00;;
13981;SDS011;7065;50.880;5.502;2022-08-03T14:56:45;4.45;;;1.25;;
13981;SDS011;7065;50.880;5.502;2022-08-03T14:59:11;0.85;;;0.85;;
13981;SDS011;7065;50.880;5.502;2022-08-03T15:01:36;1.42;;;1.00;;
13981;SDS011;7065;50.880;5.502;2022-08-03T15:04:02;2.67;;;1.05;;
13981;SDS011;7065;50.880;5.502;2022-08-03T15:06:27;5.13;;;1.27;;
13981;SDS011;7065;50.880;5.502;2022-08-03T15:08:53;2.38;;;0.80;;
13981;SDS011;7065;50.880;5.502;2022-08-03T15:11:19;3.08;;;1.02;;
13981;SDS011;7065;50.880;5.502;2022-08-03T15:13:44;2.67;;;1.10;;
13981;SDS011;7065;50.880;5.502;2022-08-03T15:16:10;2.05;;;1.10;;
13981;SDS011;7065;50.880;5.502;2022-08-03T15:18:35;3.17;;;1.20;;
13981;SDS011;7065;50.880;5.502;2022-08-03T15:21:01;4.95;;;1.23;;
13981;SDS011;7065;50.880;5.502;2022-08-03T15:23:27;2.15;;;0.98;;
13981;SDS011;7065;50.880;5.502;2022-08-03T15:25:52;1.40;;;0.88;;
13981;SDS011;7065;50.880;5.502;2022-08-03T15:28:18;2.65;;;1.05;;
13981;SDS011;7065;50.880;5.502;2022-08-03T15:30:44;1.75;;;0.93;;
13981;SDS011;7065;50.880;5.502;2022-08-03T15:33:10;1.40;;;1.20;;
13981;SDS011;7065;50.880;5.502;2022-08-03T15:35:35;2.05;;;0.88;;
13981;SDS011;7065;50.880;5.502;2022-08-03T15:38:01;1.20;;;0.90;;
13981;SDS011;7065;50.880;5.502;2022-08-03T15:40:27;2.60;;;1.20;;